El Kef, Tunisia

11:17 AM CET on August 29, 2015 (GMT +0100)
Jendouba | | Change Station
CLOSE
Current Station
Airport
Location: Jendouba,
Elevation: 472 ft
Nearby Weather Stations

Elev 472 ft 36.48 °N, 8.80 °E | Updated 17 minutes ago

Partly Cloudy
Partly Cloudy
91 °F
Feels Like 102 °F
N
5
Wind Variable Wind from SE

Today
High -- | Low -- °F
--% Chance of Precip.
Yesterday
High -- | Low -- °F
Precip. -- in
5:54 AM 6:57 PM
Full, 100% visible
Pressure 30.06 in
Visibility -9999.0 miles
Clouds Few 2000 ft
Heat Index 102 °F
Dew Point 75 °F
Humidity 59%
Rainfall 0.00 in
Snow Depth Not available.
UV 8 out of 12
Pollen Not available.
Air Quality Not available.
Flu Activity Not available.
METAR DTTN 291000Z 13004KT 050V220 //// FEW020 33/24 Q1018
Pressure 30.06 in
Visibility -9999.0 miles
Clouds Few 2000 ft
Heat Index 102 °F
Dew Point 75 °F
Humidity 59%
Rainfall 0.00 in
Snow Depth Not available.
UV 8 out of 12
Pollen Not available.
Air Quality Not available.
Flu Activity Not available.
METAR DTTN 291000Z 13004KT 050V220 //// FEW020 33/24 Q1018

10-Day Weather Forecast

×

Almanac

Astronomy

Aug. 29, 2015 Rise Set
Actual Time
Civil Twilight
Nautical Twilight
Astronomical Twilight
Moon
Length of Visible Light
Length of Day
Tomorrow will be .
, % of the Moon is Illuminated

Today's Extremes

Country Highs Country Lows

Community

WunderPhotos

Upload Photos

1,850,633 photos uploaded!

WunderBlogs® & News

Nearby

Air Quality

  Air Quality AQ Index Pollutant
Not available.

Snow Depth

Station Depth Elevation

Earthquake Activity

City Distance Mag. Time & Date
Minimum magnitude displayed is 2.5.

Coastal Water Temperatures

Place Temperature

Stations

Nearby Weather Stations

Station Location Temp. Windchill Dew Point Humidity Wind Precip. Elev Updated Type